Time;durP1;ratioP1;P1;durP2;ratioP2;P2;SDS_P1;SDS_P2;PMS_P1;PMS_P2;Temp;Humidity;BMP_temperature;BMP_pressure;BME280_temperature;BME280_humidity;BME280_pressure;Samples;Min_cycle;Max_cycle;Signal;HPM_P1;HPM_P2
2024/01/17 00:01:09;;;;;;;21.08;14.35;;;;;;;-3.75;100.00;100178.31;5097670;28;20027;-83
2024/01/17 00:03:34;;;;;;;15.73;6.93;;;;;;;-3.65;100.00;100173.75;5091844;28;20023;-84
2024/01/17 00:06:00;;;;;;;14.80;7.10;;;;;;;-3.62;100.00;100173.69;5108718;28;20429;-83
2024/01/17 00:08:25;;;;;;;18.95;13.63;;;;;;;-3.83;100.00;100168.25;5109749;28;20051;-84
2024/01/17 00:10:50;;;;;;;14.60;6.80;;;;;;;-3.67;100.00;100168.66;5103086;28;20055;-84
2024/01/17 00:13:16;;;;;;;22.75;14.35;;;;;;;-3.78;100.00;100166.41;5088234;28;20112;-84
2024/01/17 00:15:41;;;;;;;13.52;6.53;;;;;;;-3.69;100.00;100154.19;5106634;28;20055;-84
2024/01/17 00:18:09;;;;;;;19.08;14.63;;;;;;;-3.85;100.00;100159.72;5087395;28;20322;-84
2024/01/17 00:20:34;;;;;;;19.45;14.45;;;;;;;-3.89;100.00;100139.31;5088839;28;20032;-84
2024/01/17 00:23:00;;;;;;;18.17;13.63;;;;;;;-3.82;100.00;100136.53;5103672;28;20076;-83
2024/01/17 00:25:25;;;;;;;16.52;7.03;;;;;;;-3.73;100.00;100129.44;5098804;28;20042;-83
2024/01/17 00:27:54;;;;;;;11.25;5.80;;;;;;;-3.73;100.00;100116.59;5110380;28;20027;-83
2024/01/17 00:30:19;;;;;;;17.88;14.70;;;;;;;-3.76;100.00;100124.38;5109325;28;20073;-84
2024/01/17 00:32:45;;;;;;;21.23;14.70;;;;;;;-3.81;100.00;100112.50;5072998;28;20028;-84
2024/01/17 00:35:10;;;;;;;22.55;14.95;;;;;;;-3.84;100.00;100112.59;5089732;28;20028;-84
2024/01/17 00:37:36;;;;;;;8.65;5.45;;;;;;;-3.73;100.00;100103.75;5091343;28;20028;-84
2024/01/17 00:40:01;;;;;;;21.55;14.20;;;;;;;-3.87;100.00;100097.25;5095847;28;20024;-84
2024/01/17 00:42:27;;;;;;;12.85;6.25;;;;;;;-3.75;100.00;100101.22;5101327;28;20363;-84
2024/01/17 00:44:53;;;;;;;19.67;6.10;;;;;;;-3.74;100.00;100092.63;5086009;28;20388;-84
2024/01/17 00:47:19;;;;;;;21.60;14.02;;;;;;;-3.89;100.00;100087.91;5073876;28;20028;-83
2024/01/17 00:49:44;;;;;;;17.90;13.95;;;;;;;-3.87;100.00;100092.13;5075062;28;20020;-76
2024/01/17 00:52:09;;;;;;;22.83;13.73;;;;;;;-3.88;100.00;100075.03;5088206;28;20020;-76
2024/01/17 00:54:35;;;;;;;22.13;14.38;;;;;;;-3.84;100.00;100076.63;5089356;28;20020;-77
2024/01/17 00:57:00;;;;;;;11.25;6.18;;;;;;;-3.80;100.00;100065.38;5077646;28;20051;-84
2024/01/17 00:59:26;;;;;;;10.90;5.55;;;;;;;-3.78;100.00;100061.03;5076656;28;20050;-84
2024/01/17 01:01:51;;;;;;;13.95;5.32;;;;;;;-3.79;100.00;100051.63;5089807;28;20033;-84
2024/01/17 01:04:17;;;;;;;14.63;6.18;;;;;;;-3.79;100.00;100046.50;5090611;28;20054;-84
2024/01/17 01:06:42;;;;;;;11.50;6.40;;;;;;;-3.79;100.00;100049.06;5103674;28;20112;-84
2024/01/17 01:09:09;;;;;;;11.82;5.75;;;;;;;-3.80;100.00;100042.25;5087307;28;20148;-84
2024/01/17 01:11:35;;;;;;;19.27;13.60;;;;;;;-3.90;100.00;100045.97;5080126;28;20060;-84
2024/01/17 01:14:01;;;;;;;18.08;13.63;;;;;;;-3.87;100.00;100051.00;5072152;28;20443;-84
2024/01/17 01:16:26;;;;;;;19.23;13.85;;;;;;;-3.96;100.00;100041.00;5071957;28;20111;-83
2024/01/17 01:18:52;;;;;;;10.98;6.22;;;;;;;-3.83;100.00;100042.34;5086972;28;20081;-84
2024/01/17 01:21:17;;;;;;;11.45;6.43;;;;;;;-3.83;100.00;100033.78;5085581;28;20027;-84
2024/01/17 01:23:43;;;;;;;11.13;6.32;;;;;;;-3.83;100.00;100032.06;5081587;28;20024;-84
2024/01/17 01:26:08;;;;;;;16.70;5.97;;;;;;;-3.83;100.00;100029.47;5085855;28;20115;-84
2024/01/17 01:28:34;;;;;;;11.43;5.15;;;;;;;-3.83;100.00;100029.47;5088408;28;20031;-84
2024/01/17 01:30:59;;;;;;;18.48;6.13;;;;;;;-3.83;100.00;100024.34;5072079;28;20056;-83
2024/01/17 01:33:25;;;;;;;9.68;5.75;;;;;;;-3.83;100.00;100020.94;5067108;28;20028;-76
2024/01/17 01:35:50;;;;;;;21.45;13.23;;;;;;;-3.96;100.00;100022.19;5066501;28;20063;-76
2024/01/17 01:38:16;;;;;;;18.13;13.52;;;;;;;-3.98;100.00;100018.81;5069328;28;20082;-83
2024/01/17 01:40:42;;;;;;;12.68;6.00;;;;;;;-3.89;100.00;100019.38;5075965;28;20074;-83
2024/01/17 01:43:24;;;;;;;9.55;5.60;;;;;;;-3.88;100.00;100021.06;5069065;28;20065;-84
2024/01/17 01:46:15;;;;;;;11.00;5.63;;;;;;;-3.88;100.00;100015.94;5072943;28;20036;-83
2024/01/17 01:48:42;;;;;;;6.45;3.97;;;;;;;-3.89;100.00;100013.41;5069704;28;20052;-83
2024/01/17 01:51:10;;;;;;;15.65;5.63;;;;;;;-3.89;100.00;100019.38;5074607;28;20127;-83
2024/01/17 01:53:37;;;;;;;19.85;12.43;;;;;;;-4.06;100.00;100024.13;5089632;28;20016;-83
2024/01/17 01:56:04;;;;;;;12.43;5.30;;;;;;;-3.92;100.00;100013.50;5081781;28;20105;-83
2024/01/17 01:58:30;;;;;;;21.48;13.68;;;;;;;-4.01;100.00;100017.13;5084888;28;20476;-84
2024/01/17 02:00:56;;;;;;;19.75;13.15;;;;;;;-4.02;100.00;100006.91;5088185;28;20383;-83
2024/01/17 02:03:23;;;;;;;10.18;5.32;;;;;;;-3.91;100.00;100013.44;5087017;28;20393;-83
2024/01/17 02:05:49;;;;;;;10.00;4.97;;;;;;;-3.90;100.00;100017.69;5080373;28;20031;-84
2024/01/17 02:08:15;;;;;;;10.88;5.47;;;;;;;-3.90;100.00;99998.88;5067389;28;20667;-75
2024/01/17 02:10:41;;;;;;;12.07;5.85;;;;;;;-3.91;100.00;99990.31;5066485;28;20032;-76
2024/01/17 02:13:07;;;;;;;13.07;5.30;;;;;;;-3.92;100.00;99991.22;5073772;28;20043;-76
2024/01/17 02:15:33;;;;;;;13.07;5.55;;;;;;;-3.91;100.00;99987.75;5089608;28;20173;-76
2024/01/17 02:17:59;;;;;;;17.90;12.73;;;;;;;-4.01;100.00;99981.19;5071027;28;20103;-76
2024/01/17 02:20:25;;;;;;;20.73;13.27;;;;;;;-3.98;100.00;99982.84;5066490;28;20025;-76
2024/01/17 02:22:50;;;;;;;19.35;12.50;;;;;;;-4.05;100.00;99984.72;5065523;28;20064;-76
2024/01/17 02:25:16;;;;;;;11.82;5.97;;;;;;;-3.98;100.00;99975.97;5071202;28;20511;-76
2024/01/17 02:27:41;;;;;;;17.45;12.80;;;;;;;-4.11;100.00;99966.91;5087093;28;20020;-76
2024/01/17 02:30:07;;;;;;;14.68;5.90;;;;;;;-4.01;100.00;99963.19;5086921;28;20932;-76
2024/01/17 02:32:33;;;;;;;17.58;12.40;;;;;;;-4.17;100.00;99959.38;5081693;28;20434;-76
2024/01/17 02:34:59;;;;;;;11.23;5.68;;;;;;;-4.03;100.00;99951.28;5066896;28;20113;-76
2024/01/17 02:37:25;;;;;;;20.80;12.60;;;;;;;-4.16;100.00;99935.41;5081346;28;20059;-76
2024/01/17 02:39:50;;;;;;;19.08;6.40;;;;;;;-4.04;100.00;99935.03;5089482;28;20044;-76
2024/01/17 02:42:15;;;;;;;12.35;5.15;;;;;;;-3.99;100.00;99927.22;5088703;28;20059;-83
2024/01/17 02:44:40;;;;;;;16.33;12.75;;;;;;;-4.11;100.00;99923.25;5080822;28;20089;-83
2024/01/17 02:47:06;;;;;;;10.60;5.97;;;;;;;-4.01;100.00;99922.09;5073674;28;20051;-83
2024/01/17 02:49:32;;;;;;;11.52;4.95;;;;;;;-3.99;100.00;99917.78;5081953;28;20028;-77
2024/01/17 02:51:57;;;;;;;14.73;12.48;;;;;;;-4.17;100.00;99908.03;5072174;28;20372;-77
2024/01/17 02:54:22;;;;;;;9.23;5.43;;;;;;;-4.03;100.00;99911.03;5071181;28;20476;-77
2024/01/17 02:56:48;;;;;;;16.30;13.30;;;;;;;-4.09;100.00;99906.06;5071731;28;20664;-77
2024/01/17 02:59:14;;;;;;;12.20;5.07;;;;;;;-4.03;100.00;99905.88;5074488;28;20020;-77
2024/01/17 03:01:39;;;;;;;10.02;4.97;;;;;;;-4.02;100.00;99892.16;5086727;28;20101;-77
2024/01/17 03:04:05;;;;;;;11.63;5.72;;;;;;;-4.03;100.00;99884.50;5074317;28;20031;-76
2024/01/17 03:06:31;;;;;;;8.48;5.43;;;;;;;-4.03;100.00;99885.34;5072378;28;20454;-76
2024/01/17 03:08:56;;;;;;;10.80;5.50;;;;;;;-4.02;100.00;99883.59;5070914;28;20492;-76
2024/01/17 03:11:22;;;;;;;10.02;5.25;;;;;;;-4.03;100.00;99880.19;5089544;28;20047;-77
2024/01/17 03:13:50;;;;;;;12.43;5.28;;;;;;;-4.03;100.00;99880.19;5108657;28;20015;-77
2024/01/17 03:16:19;;;;;;;11.98;5.22;;;;;;;-4.03;100.00;99885.34;5104900;28;20023;-77
2024/01/17 03:18:45;;;;;;;14.98;5.32;;;;;;;-4.04;100.00;99883.66;5107155;28;20119;-77
2024/01/17 03:21:10;;;;;;;17.17;12.25;;;;;;;-4.15;100.00;99881.41;5110482;28;20119;-76
2024/01/17 03:23:35;;;;;;;18.60;12.27;;;;;;;-4.18;100.00;99876.38;5091567;28;20440;-77
2024/01/17 03:26:01;;;;;;;18.85;13.10;;;;;;;-4.18;100.00;99875.53;5090751;28;20078;-77
2024/01/17 03:28:27;;;;;;;16.30;11.73;;;;;;;-4.15;100.00;99875.44;5092350;28;20059;-77
2024/01/17 03:30:52;;;;;;;13.60;5.63;;;;;;;-4.05;100.00;99876.84;5106897;28;20027;-76
2024/01/17 03:33:18;;;;;;;13.65;4.57;;;;;;;-4.05;100.00;99861.44;5090102;28;20042;-77
2024/01/17 03:35:43;;;;;;;9.23;5.20;;;;;;;-4.04;100.00;99852.84;5110793;28;20024;-77
2024/01/17 03:38:09;;;;;;;8.63;4.38;;;;;;;-4.02;100.00;99845.09;5109236;28;20032;-77
2024/01/17 03:40:34;;;;;;;17.95;11.88;;;;;;;-4.11;100.00;99834.22;5084140;28;20294;-76
2024/01/17 03:42:59;;;;;;;17.23;5.32;;;;;;;-4.03;100.00;99821.13;5109586;28;20032;-76
2024/01/17 03:45:26;;;;;;;13.15;4.72;;;;;;;-4.03;100.00;99816.00;5080689;28;20027;-77
2024/01/17 03:47:54;;;;;;;10.05;5.13;;;;;;;-4.02;100.00;99809.13;5100853;28;20519;-76
2024/01/17 03:50:19;;;;;;;7.07;3.85;;;;;;;-4.02;100.00;99793.72;5096510;28;20023;-75
2024/01/17 03:52:45;;;;;;;8.27;4.90;;;;;;;-4.02;100.00;99794.53;5070798;28;20073;-76
2024/01/17 03:55:10;;;;;;;9.15;4.63;;;;;;;-4.01;100.00;99788.53;5071243;28;20030;-76
2024/01/17 03:57:35;;;;;;;15.05;11.93;;;;;;;-4.11;100.00;99782.00;5089075;28;20115;-76
2024/01/17 04:00:03;;;;;;;16.80;11.43;;;;;;;-4.12;100.00;99772.63;5103929;28;20029;-76
2024/01/17 04:02:29;;;;;;;15.10;11.85;;;;;;;-4.10;100.00;99763.13;5102817;28;20483;-76
2024/01/17 04:04:54;;;;;;;9.00;4.57;;;;;;;-4.05;100.00;99758.69;5095820;28;20074;-76
2024/01/17 04:07:22;;;;;;;9.85;4.72;;;;;;;-4.02;100.00;99763.72;5091121;28;20052;-76
2024/01/17 04:09:50;;;;;;;15.52;11.93;;;;;;;-4.12;100.00;99759.78;5110924;28;20023;-76
2024/01/17 04:12:15;;;;;;;16.77;11.77;;;;;;;-4.13;100.00;99750.41;5091798;28;20085;-76
2024/01/17 04:14:41;;;;;;;11.32;4.65;;;;;;;-4.02;100.00;99743.19;5110694;28;20456;-76
2024/01/17 04:17:10;;;;;;;12.70;4.63;;;;;;;-4.00;100.00;99727.72;5108094;28;20085;-76
2024/01/17 04:19:35;;;;;;;10.00;4.97;;;;;;;-3.99;100.00;99722.56;5089789;28;20016;-76
2024/01/17 04:22:01;;;;;;;11.52;4.88;;;;;;;-3.98;100.00;99710.56;5109681;28;20023;-76
2024/01/17 04:24:26;;;;;;;18.20;11.95;;;;;;;-4.07;100.00;99716.81;5111230;28;20038;-77
2024/01/17 04:26:55;;;;;;;14.18;11.35;;;;;;;-4.11;100.00;99715.22;5093509;28;20027;-83
2024/01/17 04:29:20;;;;;;;15.88;11.30;;;;;;;-4.07;100.00;99706.53;5090618;28;20063;-82
2024/01/17 04:31:46;;;;;;;15.38;11.52;;;;;;;-4.11;100.00;99703.22;5090877;28;20055;-82
2024/01/17 04:34:11;;;;;;;9.00;5.20;;;;;;;-3.99;100.00;99696.88;5093636;28;20109;-82
2024/01/17 04:36:36;;;;;;;12.38;4.72;;;;;;;-3.97;100.00;99674.53;5097491;28;20059;-82
2024/01/17 04:39:02;;;;;;;9.63;4.25;;;;;;;-3.96;100.00;99672.81;5092867;28;20027;-82
2024/01/17 04:41:28;;;;;;;15.88;11.50;;;;;;;-4.12;100.00;99675.03;5089992;28;20035;-83
2024/01/17 04:43:53;;;;;;;7.43;4.50;;;;;;;-3.98;100.00;99666.88;5091893;28;20016;-84
2024/01/17 04:46:18;;;;;;;8.48;4.43;;;;;;;-3.97;100.00;99671.13;5109308;28;20464;-83
2024/01/17 04:48:45;;;;;;;12.48;4.90;;;;;;;-3.97;100.00;99666.84;5108418;28;20078;-83
2024/01/17 04:51:11;;;;;;;17.98;5.00;;;;;;;-3.96;100.00;99660.81;5090081;28;20051;-83
2024/01/17 04:53:37;;;;;;;15.10;11.30;;;;;;;-4.09;100.00;99649.25;5099355;28;20077;-83
2024/01/17 04:56:07;;;;;;;14.38;4.28;;;;;;;-3.98;100.00;99634.34;5091020;28;20024;-82
2024/01/17 04:58:32;;;;;;;12.65;5.20;;;;;;;-3.96;100.00;99626.56;5088812;28;20023;-83
2024/01/17 05:00:59;;;;;;;12.20;4.70;;;;;;;-3.97;100.00;99628.31;5102077;28;20111;-82
2024/01/17 05:03:25;;;;;;;16.05;5.25;;;;;;;-3.99;100.00;99624.94;5107560;28;20030;-83
2024/01/17 05:05:50;;;;;;;8.25;4.57;;;;;;;-3.97;100.00;99625.72;5109091;28;20027;-83
2024/01/17 05:08:15;;;;;;;16.65;10.50;;;;;;;-4.10;100.00;99622.72;5089874;28;20024;-83
2024/01/17 05:10:45;;;;;;;8.60;4.30;;;;;;;-3.97;100.00;99612.06;5105007;28;20054;-83
2024/01/17 05:13:11;;;;;;;11.20;4.40;;;;;;;-3.96;100.00;99608.59;5107894;28;20030;-83
2024/01/17 05:15:36;;;;;;;10.30;4.47;;;;;;;-3.97;100.00;99610.31;5108152;28;20475;-85
2024/01/17 05:18:04;;;;;;;15.77;10.70;;;;;;;-4.08;100.00;99609.81;5097688;28;20030;-83
2024/01/17 05:20:29;;;;;;;11.27;5.00;;;;;;;-3.98;100.00;99600.09;5070018;28;20035;-82
2024/01/17 05:22:55;;;;;;;10.35;4.35;;;;;;;-3.95;100.00;99600.00;5103981;28;20032;-83
2024/01/17 05:25:20;;;;;;;8.52;4.28;;;;;;;-3.94;100.00;99597.38;5089675;28;20028;-82
2024/01/17 05:27:52;;;;;;;17.88;11.60;;;;;;;-4.05;100.00;99596.03;5070520;28;20028;-83
2024/01/17 05:30:18;;;;;;;14.48;5.28;;;;;;;-3.94;100.00;99589.66;5104866;28;20034;-83
2024/01/17 05:32:44;;;;;;;15.77;11.85;;;;;;;-4.01;100.00;99583.03;5108827;28;20020;-83
2024/01/17 05:35:09;;;;;;;15.65;11.48;;;;;;;-4.01;100.00;99572.75;5108303;28;20089;-83
2024/01/17 05:37:35;;;;;;;15.00;11.65;;;;;;;-4.05;100.00;99573.75;5090797;28;20059;-83
2024/01/17 05:40:00;;;;;;;15.63;11.23;;;;;;;-4.03;100.00;99571.97;5106171;28;20019;-83
2024/01/17 05:42:25;;;;;;;11.02;4.68;;;;;;;-3.92;100.00;99564.75;5105008;28;20428;-83
2024/01/17 05:44:54;;;;;;;17.98;4.90;;;;;;;-3.89;100.00;99556.09;5097085;28;20031;-83
2024/01/17 05:47:19;;;;;;;16.27;11.52;;;;;;;-4.01;100.00;99551.38;5090248;28;20027;-83
2024/01/17 05:49:44;;;;;;;16.48;11.57;;;;;;;-4.03;100.00;99551.44;5089268;28;20032;-83
2024/01/17 05:52:10;;;;;;;10.18;4.95;;;;;;;-3.90;100.00;99565.53;5071563;28;20016;-83
2024/01/17 05:54:35;;;;;;;8.45;4.68;;;;;;;-3.89;100.00;99553.53;5074567;28;20107;-83
2024/01/17 05:57:01;;;;;;;7.65;4.35;;;;;;;-3.86;100.00;99550.84;5105740;28;20376;-83
2024/01/17 05:59:26;;;;;;;14.73;11.10;;;;;;;-3.92;100.00;99544.19;5091388;28;20122;-83
2024/01/17 06:01:54;;;;;;;11.05;5.65;;;;;;;-3.85;100.00;99540.50;5103719;28;20464;-83
2024/01/17 06:04:20;;;;;;;15.05;11.93;;;;;;;-3.93;100.00;99537.38;5096960;28;20032;-83
2024/01/17 06:06:45;;;;;;;12.45;5.50;;;;;;;-3.83;100.00;99533.59;5071810;28;20027;-83
2024/01/17 06:09:10;;;;;;;17.38;12.07;;;;;;;-3.93;100.00;99532.25;5070594;28;20036;-83
2024/01/17 06:11:36;;;;;;;12.15;5.45;;;;;;;-3.81;100.00;99526.66;5076636;28;20051;-83
2024/01/17 06:14:01;;;;;;;10.40;5.28;;;;;;;-3.80;100.00;99520.63;5095758;28;20016;-83
2024/01/17 06:16:26;;;;;;;10.98;4.85;;;;;;;-3.78;100.00;99523.97;5084980;28;20023;-84
2024/01/17 06:18:52;;;;;;;17.23;12.38;;;;;;;-3.88;100.00;99522.66;5111080;28;20023;-83
2024/01/17 06:21:17;;;;;;;16.27;12.27;;;;;;;-3.89;100.00;99515.00;5110658;28;20495;-83
2024/01/17 06:23:44;;;;;;;9.07;4.75;;;;;;;-3.79;100.00;99514.59;5111129;28;20051;-83
2024/01/17 06:26:09;;;;;;;10.02;5.60;;;;;;;-3.80;100.00;99507.78;5084962;28;20027;-82
2024/01/17 06:28:35;;;;;;;16.48;12.65;;;;;;;-3.86;100.00;99500.31;5092064;28;20024;-82
2024/01/17 06:31:01;;;;;;;13.38;5.15;;;;;;;-3.79;100.00;99504.31;5072911;28;20019;-82
2024/01/17 06:33:26;;;;;;;15.85;5.68;;;;;;;-3.80;100.00;99497.50;5094634;27;20332;-82
2024/01/17 06:35:56;;;;;;;11.32;6.07;;;;;;;-3.78;100.00;99500.00;5111472;28;20559;-82
2024/01/17 06:38:22;;;;;;;11.07;5.75;;;;;;;-3.76;100.00;99489.69;5083372;28;20035;-82
2024/01/17 06:40:50;;;;;;;10.80;5.13;;;;;;;-3.75;100.00;99483.66;5106886;28;20015;-83
2024/01/17 06:43:16;;;;;;;17.77;12.88;;;;;;;-3.87;100.00;99480.66;5111219;28;20032;-82
2024/01/17 06:45:42;;;;;;;18.27;13.70;;;;;;;-3.88;100.00;99476.41;5093187;28;20020;-83
2024/01/17 06:48:08;;;;;;;8.57;5.95;;;;;;;-3.79;100.00;99473.47;5108923;28;20387;-83
2024/01/17 06:50:33;;;;;;;9.18;4.75;;;;;;;-3.76;100.00;99475.09;5098983;28;20020;-83
2024/01/17 06:52:59;;;;;;;12.85;5.78;;;;;;;-3.76;100.00;99471.69;5090988;28;20031;-83
2024/01/17 06:55:25;;;;;;;17.77;5.68;;;;;;;-3.75;100.00;99468.22;5099553;28;20481;-83
2024/01/17 06:57:54;;;;;;;12.30;4.95;;;;;;;-3.74;100.00;99473.31;5113034;28;20387;-83
2024/01/17 07:00:20;;;;;;;12.40;5.13;;;;;;;-3.73;100.00;99466.44;5111763;28;20015;-83
2024/01/17 07:02:45;;;;;;;14.80;5.65;;;;;;;-3.69;100.00;99460.28;5103729;28;20372;-83
2024/01/17 07:05:10;;;;;;;13.45;5.60;;;;;;;-3.70;100.00;99446.59;5111485;28;20031;-83
2024/01/17 07:07:38;;;;;;;10.07;5.25;;;;;;;-3.68;100.00;99449.94;5109975;28;20131;-83
2024/01/17 07:10:05;;;;;;;11.50;5.80;;;;;;;-3.69;100.00;99434.59;5087903;28;20024;-83
2024/01/17 07:12:31;;;;;;;17.23;12.68;;;;;;;-3.76;100.00;99441.69;5106036;28;20440;-83
2024/01/17 07:14:56;;;;;;;9.80;5.18;;;;;;;-3.67;100.00;99428.47;5109503;28;20104;-83
2024/01/17 07:17:21;;;;;;;11.15;4.85;;;;;;;-3.64;100.00;99422.38;5084856;28;20122;-83
2024/01/17 07:19:51;;;;;;;13.50;5.30;;;;;;;-3.62;100.00;99425.72;5092687;28;20024;-83
2024/01/17 07:22:16;;;;;;;10.70;5.40;;;;;;;-3.62;100.00;99416.28;5107161;28;20488;-83
2024/01/17 07:24:43;;;;;;;14.45;12.52;;;;;;;-3.71;100.00;99418.38;5094007;28;20016;-83
2024/01/17 07:27:09;;;;;;;19.05;13.55;;;;;;;-3.73;100.00;99415.03;5075661;28;20031;-83
2024/01/17 07:29:35;;;;;;;17.95;13.23;;;;;;;-3.73;100.00;99399.63;5091723;28;20025;-83
2024/01/17 07:32:00;;;;;;;19.15;12.70;;;;;;;-3.74;100.00;99400.53;5093730;28;20071;-83
2024/01/17 07:34:25;;;;;;;16.20;12.43;;;;;;;-3.74;100.00;99392.81;5100824;28;20211;-83
2024/01/17 07:36:53;;;;;;;10.23;4.88;;;;;;;-3.64;100.00;99387.25;5090359;28;20074;-83
2024/01/17 07:39:19;;;;;;;12.50;5.25;;;;;;;-3.62;100.00;99384.63;5105097;28;20011;-83
2024/01/17 07:41:46;;;;;;;10.35;5.53;;;;;;;-3.62;100.00;99372.59;5093123;28;20447;-83
2024/01/17 07:44:11;;;;;;;14.75;11.55;;;;;;;-3.71;100.00;99367.00;5091677;28;20169;-82
2024/01/17 07:46:38;;;;;;;10.75;4.65;;;;;;;-3.60;100.00;99365.69;5111196;28;20085;-82
2024/01/17 07:49:03;;;;;;;15.63;11.98;;;;;;;-3.67;100.00;99355.69;5107307;28;20451;-83
2024/01/17 07:51:30;;;;;;;13.95;11.68;;;;;;;-3.66;100.00;99352.22;5088464;28;20024;-83
2024/01/17 07:53:56;;;;;;;15.55;11.90;;;;;;;-3.66;100.00;99350.50;5089923;28;20193;-83
2024/01/17 07:56:22;;;;;;;14.65;11.63;;;;;;;-3.66;100.00;99340.22;5093383;28;20130;-83
2024/01/17 07:58:49;;;;;;;12.82;5.05;;;;;;;-3.54;100.00;99334.59;5103344;28;20102;-83
2024/01/17 08:01:15;;;;;;;16.40;11.15;;;;;;;-3.61;100.00;99327.19;5100631;28;20111;-82
2024/01/17 08:03:40;;;;;;;11.13;4.70;;;;;;;-3.50;100.00;99337.88;5105371;28;20178;-84
2024/01/17 08:06:09;;;;;;;8.88;5.22;;;;;;;-3.49;100.00;99331.84;5109520;28;20031;-83
2024/01/17 08:08:35;;;;;;;11.70;5.68;;;;;;;-3.48;100.00;99323.22;5107091;28;20389;-84
2024/01/17 08:11:00;;;;;;;14.57;5.57;;;;;;;-3.45;100.00;99323.09;5081238;28;20154;-84
2024/01/17 08:13:26;;;;;;;17.63;11.43;;;;;;;-3.50;100.00;99319.88;5102811;28;20491;-83
2024/01/17 08:15:54;;;;;;;12.77;5.07;;;;;;;-3.41;100.00;99314.34;5083779;28;20036;-83
2024/01/17 08:18:20;;;;;;;15.15;5.40;;;;;;;-3.39;100.00;99322.84;5098301;28;20027;-83
2024/01/17 08:20:46;;;;;;;14.93;11.40;;;;;;;-3.47;100.00;99319.75;5101945;28;20030;-84
2024/01/17 08:23:11;;;;;;;13.82;11.02;;;;;;;-3.44;100.00;99318.78;5084098;28;20456;-82
2024/01/17 08:25:37;;;;;;;13.25;5.45;;;;;;;-3.34;100.00;99315.75;5101326;28;20583;-83
2024/01/17 08:28:03;;;;;;;8.98;4.80;;;;;;;-3.29;100.00;99315.56;5104157;28;20046;-84
2024/01/17 08:30:28;;;;;;;12.73;5.50;;;;;;;-3.29;100.00;99303.53;5111761;28;20066;-83
2024/01/17 08:32:53;;;;;;;9.77;5.22;;;;;;;-3.26;100.00;99293.13;5098373;28;20025;-83
2024/01/17 08:35:19;;;;;;;15.40;11.63;;;;;;;-3.33;100.00;99299.44;5109403;28;20056;-83
2024/01/17 08:37:45;;;;;;;14.50;11.48;;;;;;;-3.32;100.00;99292.56;5094269;28;20028;-83
2024/01/17 08:40:11;;;;;;;16.20;12.07;;;;;;;-3.29;100.00;99288.13;5075995;28;20302;-82
2024/01/17 08:42:37;;;;;;;15.15;11.57;;;;;;;-3.28;100.00;99282.06;5090140;28;20103;-83
2024/01/17 08:45:05;;;;;;;15.57;11.68;;;;;;;-3.22;100.00;99279.22;5070795;28;20035;-82
2024/01/17 08:47:31;;;;;;;11.35;5.70;;;;;;;-3.11;100.00;99276.22;5091851;28;20105;-82
2024/01/17 08:49:56;;;;;;;15.70;12.05;;;;;;;-3.14;100.00;99275.53;5091281;28;20023;-83
2024/01/17 08:52:22;;;;;;;15.98;12.52;;;;;;;-3.12;100.00;99264.25;5098134;28;20538;-83
2024/01/17 08:54:48;;;;;;;17.00;12.38;;;;;;;-3.08;100.00;99259.81;5088192;28;20036;-83
2024/01/17 08:57:13;;;;;;;16.48;11.85;;;;;;;-3.11;100.00;99250.50;5103692;28;20027;-83
2024/01/17 08:59:39;;;;;;;20.33;13.07;;;;;;;-3.11;100.00;99254.81;5109752;28;20038;-83
2024/01/17 09:02:04;;;;;;;17.75;12.70;;;;;;;-3.05;100.00;99249.38;5079557;28;20020;-84
2024/01/17 09:04:31;;;;;;;12.60;5.22;;;;;;;-2.94;100.00;99242.03;5089421;28;20067;-82
2024/01/17 09:06:56;;;;;;;12.40;5.43;;;;;;;-2.90;100.00;99238.41;5098693;28;20069;-82
2024/01/17 09:09:23;;;;;;;18.30;12.55;;;;;;;-2.98;100.00;99235.34;5102046;28;20036;-83
2024/01/17 09:11:48;;;;;;;11.65;5.97;;;;;;;-2.87;100.00;99233.13;5101801;28;20087;-83
2024/01/17 09:14:14;;;;;;;11.32;5.10;;;;;;;-2.84;100.00;99233.81;5069318;28;20460;-84
2024/01/17 09:16:39;;;;;;;14.57;6.15;;;;;;;-2.80;100.00;99229.41;5094934;28;20637;-83
2024/01/17 09:19:04;;;;;;;7.95;4.78;;;;;;;-2.78;100.00;99225.00;5099521;28;20034;-83
2024/01/17 09:21:31;;;;;;;15.60;12.23;;;;;;;-2.88;100.00;99227.13;5088647;28;20040;-83
2024/01/17 09:23:57;;;;;;;15.40;12.05;;;;;;;-2.88;100.00;99219.41;5104483;28;20130;-83
2024/01/17 09:26:22;;;;;;;14.57;5.50;;;;;;;-2.75;100.00;99222.28;5108101;28;20124;-83
2024/01/17 09:28:48;;;;;;;11.10;5.10;;;;;;;-2.71;100.00;99218.66;5105984;28;20511;-82
2024/01/17 09:31:14;;;;;;;11.20;5.75;;;;;;;-2.67;100.00;99212.47;5089730;28;20031;-83
2024/01/17 09:33:39;;;;;;;15.10;5.97;;;;;;;-2.66;100.00;99211.56;5083524;28;20019;-83
2024/01/17 09:36:05;;;;;;;18.17;13.18;;;;;;;-2.76;100.00;99205.19;5106089;28;20372;-83
2024/01/17 09:38:31;;;;;;;19.38;5.95;;;;;;;-2.64;100.00;99209.75;5104628;28;20035;-83
2024/01/17 09:40:56;;;;;;;15.77;6.07;;;;;;;-2.61;100.00;99203.63;5086755;28;20289;-83
2024/01/17 09:43:22;;;;;;;17.20;12.40;;;;;;;-2.71;100.00;99203.22;5071474;28;20035;-82
2024/01/17 09:45:48;;;;;;;14.07;11.65;;;;;;;-2.76;100.00;99210.34;5088840;28;20030;-83
2024/01/17 09:48:15;;;;;;;16.80;12.77;;;;;;;-2.72;100.00;99203.31;5090045;28;20024;-83
2024/01/17 09:50:40;;;;;;;18.50;13.00;;;;;;;-2.70;100.00;99202.31;5088988;28;20048;-83
2024/01/17 09:53:12;;;;;;;14.77;12.63;;;;;;;-2.67;100.00;99197.03;5089484;28;20468;-76
2024/01/17 09:55:40;;;;;;;16.55;13.13;;;;;;;-2.64;100.00;99191.75;5095053;28;20429;-77
2024/01/17 09:58:12;;;;;;;17.27;13.38;;;;;;;-2.65;100.00;99191.81;5109015;28;20564;-83
2024/01/17 10:00:39;;;;;;;13.70;5.70;;;;;;;-2.54;100.00;99187.81;5082144;28;20020;-83
2024/01/17 10:03:05;;;;;;;16.33;5.90;;;;;;;-2.53;100.00;99186.91;5087339;28;20099;-83
2024/01/17 10:05:32;;;;;;;20.23;5.80;;;;;;;-2.50;100.00;99182.53;5099734;28;20020;-83
2024/01/17 10:07:59;;;;;;;17.55;13.40;;;;;;;-2.55;100.00;99177.59;5108433;28;20084;-83
2024/01/17 10:10:24;;;;;;;16.63;13.68;;;;;;;-2.59;100.00;99181.22;5089893;28;20027;-83
2024/01/17 10:12:57;;;;;;;18.23;13.57;;;;;;;-2.60;100.00;99177.81;5091532;28;20036;-83
2024/01/17 10:15:23;;;;;;;;;;;;;;;-2.44;100.00;99182.22;5069985;28;20024;-83
2024/01/17 10:17:48;;;;;;;10.82;6.13;;;;;;;-2.40;100.00;99170.88;5103088;28;20051;-83
2024/01/17 10:20:14;;;;;;;16.05;13.15;;;;;;;-2.42;100.00;99172.69;5082480;28;20058;-84
2024/01/17 10:22:41;;;;;;;18.83;13.50;;;;;;;-2.40;100.00;99169.16;5094207;28;20257;-84
2024/01/17 10:25:11;;;;;;;12.98;6.18;;;;;;;-2.28;100.00;99162.56;5093763;28;20107;-84
2024/01/17 10:27:37;;;;;;;16.20;12.75;;;;;;;-2.34;100.00;99160.31;5090463;28;20027;-84
2024/01/17 10:30:04;;;;;;;15.13;6.53;;;;;;;-2.21;100.00;99158.78;5107647;28;20077;-84
2024/01/17 10:32:31;;;;;;;16.40;13.40;;;;;;;-2.32;100.00;99159.31;5107297;28;20102;-84
2024/01/17 10:34:58;;;;;;;15.85;13.02;;;;;;;-2.31;100.00;99145.53;5106122;28;20428;-84
2024/01/17 10:37:24;;;;;;;12.18;6.20;;;;;;;-2.19;100.00;99149.25;5107950;28;20054;-84
2024/01/17 10:40:14;;;;;;;17.30;13.75;;;;;;;-2.26;100.00;99147.88;5107068;28;20023;-84
2024/01/17 10:42:40;;;;;;;22.85;15.48;;;;;;;-2.29;100.00;99140.31;5109828;28;20038;-82
2024/01/17 10:45:18;;;;;;;18.17;14.35;;;;;;;-2.29;100.00;99132.56;5108782;28;20316;-84
2024/01/17 10:47:44;;;;;;;18.40;14.65;;;;;;;-2.28;100.00;99132.50;5108375;28;20081;-83
2024/01/17 10:50:10;;;;;;;21.48;15.32;;;;;;;-2.30;100.00;99130.91;5109055;28;20434;-84
2024/01/17 10:52:39;;;;;;;14.32;6.85;;;;;;;-2.19;100.00;99127.78;5108566;28;20095;-83
2024/01/17 10:55:07;;;;;;;12.98;6.47;;;;;;;-2.21;100.00;99115.81;5090951;28;20383;-83
2024/01/17 10:57:34;;;;;;;17.45;7.13;;;;;;;-2.20;100.00;99116.66;5112699;28;20031;-83
2024/01/17 11:00:03;;;;;;;21.85;17.42;;;;;;;-2.28;100.00;99111.06;5111726;28;20072;-83
2024/01/17 11:02:31;;;;;;;20.50;17.10;;;;;;;-2.25;100.00;99113.47;5113014;28;20046;-83
2024/01/17 11:05:07;;;;;;;22.48;17.00;;;;;;;-2.26;100.00;99106.66;5112437;28;20020;-84
2024/01/17 11:07:35;;;;;;;22.27;17.60;;;;;;;-2.26;100.00;99114.41;5094150;28;20038;-83
2024/01/17 11:10:05;;;;;;;23.20;16.83;;;;;;;-2.21;100.00;99100.38;5112971;28;20041;-83